Bartlett, NH (03812)

8:55 PM EDT on August 27, 2014 (GMT -0400)
Higgins Location | Change Station
CLOSE
Current Station
Personal Weather Station
Location: Glen, NH
Elevation: 1155 ft
Nearby Weather Stations

Elev 1155 ft 44.12 °N, 71.20 °W | Updated 29 minutes ago

Overcast
Overcast
74.9 °F
Feels Like 77 °F
N
3.0
Wind Variable Wind from West
Gusts 9.0 mph

Today
High -- | Low -- °F
--% Chance of Precip.
Yesterday
High -- | Low -- °F
Precip. -- in
6:02 AM 7:29 PM
Waxing Crescent, 5% visible
Pressure 29.92 in
Visibility 10.0 miles
Clouds Few 15000 ft
Heat Index 77 °F
Dew Point 59 °F
Humidity 57%
Rainfall 0.00 in
Snow Depth Not available.
UV 0 out of 12
Pollen 8.20 out of 12
Ozone Good
Flu Activity Not available.
METAR KCWN 272356Z AUTO VRB03KT 10SM FEW150 21/03 A3014 RMK AO2 LTG DSNT W SLP131 T02130032 10238 20190 56011

More Conditions Fewer Conditions

Pressure 29.92 in
Visibility 10.0 miles
Clouds Few 15000 ft
Heat Index 77 °F
Dew Point 59 °F
Humidity 57%
Rainfall 0.00 in
Snow Depth Not available.
UV 0 out of 12
Pollen 8.20 out of 12
Ozone Good
Flu Activity Not available.
METAR KCWN 272356Z AUTO VRB03KT 10SM FEW150 21/03 A3014 RMK AO2 LTG DSNT W SLP131 T02130032 10238 20190 56011

More Conditions Fewer Conditions

10-Day Weather Forecast

Almanac

Astronomy

Aug. 27, 2014 Rise Set
Actual Time 6:02 AM EDT 7:29 PM EDT
Civil Twilight 5:32 AM EDT 8:00 PM EDT
Nautical Twilight 4:55 AM EDT 8:36 PM EDT
Astronomical Twilight 4:16 AM EDT 9:15 PM EDT
Moon 8:01 AM EDT (8/27) 8:13 PM EDT (8/27)
Length of Visible Light 14h 27m
Length of Day
13h 27m
Tomorrow will be 2m 53s shorter.
Waxing Crescent, 5% of the Moon is Illuminated
Today
Waxing Crescent
Sep 2
First Quarter
Sep 8
Full
Sep 15
Last Quarter
Sep 24
New

Today's Extremes

State Highs State Lows

Community

WunderPhotos

Upload Photos

1,747,837 photos uploaded!

Nearby

Air Quality

  Air Quality AQ Index Pollutant
Yesterday Good
OZONE
Current Good
OZONE
Wednesday Good
PM2.5
Wednesday Good
OZONE
Thursday Good
PM2.5
Thursday Good
OZONE

Snow Depth

Station Depth Elevation
No new snow has been reported.

Earthquake Activity

City Distance Mag. Time & Date
No recent earthquake activity has been reported nearby.
Minimum magnitude displayed is 2.5.

Coastal Water Temperatures

Place Temperature
No Stations Reporting

Nearby Weather Stations